Time;durP1;ratioP1;P1;durP2;ratioP2;P2;SDS_P1;SDS_P2;PMS_P1;PMS_P2;Temp;Humidity;BMP_temperature;BMP_pressure;BME280_temperature;BME280_humidity;BME280_pressure;Samples;Min_cycle;Max_cycle;Signal;HPM_P1;HPM_P2
2022/06/11 00:00:13;;;;;;;31.27;17.73;;;;;;;17.03;98.03;102016.66;5044560;28;20737;-63
2022/06/11 00:02:39;;;;;;;28.83;17.90;;;;;;;16.86;99.14;102021.53;5033765;28;20613;-64
2022/06/11 00:05:05;;;;;;;26.55;17.30;;;;;;;16.91;99.00;102022.06;5032365;28;20464;-64
2022/06/11 00:07:31;;;;;;;27.92;16.67;;;;;;;16.95;98.79;102018.19;5033805;28;20121;-64
2022/06/11 00:09:57;;;;;;;32.35;17.02;;;;;;;17.03;98.22;102016.66;5033680;28;20521;-64
2022/06/11 00:12:22;;;;;;;27.15;17.70;;;;;;;17.04;98.12;102021.06;5047117;28;20044;-64
2022/06/11 00:14:49;;;;;;;28.13;16.10;;;;;;;17.08;97.80;102019.03;5045719;28;20040;-64
2022/06/11 00:17:17;;;;;;;26.83;15.63;;;;;;;17.06;97.46;102021.81;5049295;28;20193;-62
2022/06/11 00:19:43;;;;;;;28.00;16.25;;;;;;;16.89;98.48;102021.31;5046900;28;20037;-64
2022/06/11 00:22:10;;;;;;;23.42;14.60;;;;;;;16.86;98.04;102019.69;5042590;28;20045;-64
2022/06/11 00:24:36;;;;;;;33.45;15.38;;;;;;;16.85;98.15;102019.81;5051480;28;20522;-64
2022/06/11 00:27:02;;;;;;;27.70;14.85;;;;;;;16.86;97.91;102018.81;5054661;28;20067;-64
2022/06/11 00:29:31;;;;;;;20.77;14.15;;;;;;;16.79;97.41;102013.03;5026060;28;20033;-64
2022/06/11 00:31:57;;;;;;;26.00;13.80;;;;;;;16.82;97.41;102019.06;5050326;28;20662;-64
2022/06/11 00:34:23;;;;;;;21.40;13.23;;;;;;;16.82;96.93;102020.91;5051238;28;20763;-64
2022/06/11 00:36:49;;;;;;;20.05;11.60;;;;;;;16.92;94.80;102023.78;5052370;28;20040;-64
2022/06/11 00:39:18;;;;;;;16.85;10.55;;;;;;;17.00;93.96;102016.00;5041035;28;20048;-64
2022/06/11 00:41:47;;;;;;;15.05;8.55;;;;;;;17.06;92.41;102016.44;5052112;28;20060;-62
2022/06/11 00:44:15;;;;;;;12.68;7.70;;;;;;;17.15;91.65;102017.59;5034417;28;20143;-64
2022/06/11 00:46:49;;;;;;;18.88;7.75;;;;;;;17.08;91.42;102010.94;5050665;28;20036;-64
2022/06/11 00:49:17;;;;;;;14.88;6.28;;;;;;;17.14;91.22;102025.81;5050180;28;20118;-63
2022/06/11 00:51:44;;;;;;;16.48;7.35;;;;;;;17.11;90.86;102016.09;5035541;28;20041;-64
2022/06/11 00:54:15;;;;;;;12.23;6.82;;;;;;;16.99;91.49;102023.25;5031565;28;20219;-64
2022/06/11 00:56:47;;;;;;;12.25;6.97;;;;;;;17.00;91.22;102018.72;5030790;28;20037;-64
2022/06/11 00:59:21;;;;;;;12.00;6.93;;;;;;;16.91;91.83;102012.13;5031341;28;20128;-64
2022/06/11 01:01:47;;;;;;;9.98;6.75;;;;;;;16.92;91.44;102013.88;5035999;28;20033;-64
2022/06/11 01:04:44;;;;;;;13.35;6.75;;;;;;;16.79;92.28;102018.41;5034733;28;20032;-64
2022/06/11 01:07:45;;;;;;;16.65;7.45;;;;;;;16.68;92.68;102020.97;5049529;28;20036;-64
2022/06/11 01:10:23;;;;;;;15.77;7.28;;;;;;;16.57;93.34;102010.97;5046265;28;20047;-63
2022/06/11 01:13:10;;;;;;;19.50;7.72;;;;;;;16.48;93.54;102007.06;5049880;28;20117;-63
2022/06/11 01:15:55;;;;;;;14.88;6.88;;;;;;;16.48;93.84;102011.59;5050089;28;20044;-64
2022/06/11 01:18:40;;;;;;;11.75;7.32;;;;;;;16.34;94.65;102011.69;5049818;28;20041;-64
2022/06/11 01:21:11;;;;;;;14.25;7.93;;;;;;;16.15;95.71;102015.63;5048755;28;20143;-64
2022/06/11 01:23:50;;;;;;;15.27;8.80;;;;;;;16.11;96.35;102016.78;5050591;28;20340;-64
2022/06/11 01:26:47;;;;;;;18.77;8.95;;;;;;;16.10;96.61;102014.22;5047301;28;20040;-64
2022/06/11 01:29:43;;;;;;;13.57;9.07;;;;;;;16.04;96.44;102010.13;5047521;28;20680;-64
2022/06/11 01:32:20;;;;;;;14.63;8.95;;;;;;;15.92;96.78;102013.66;5049702;28;20040;-64
2022/06/11 01:35:10;;;;;;;20.42;11.32;;;;;;;15.86;97.58;102016.72;5034785;28;20040;-64
2022/06/11 01:37:52;;;;;;;18.35;10.80;;;;;;;15.66;98.32;102021.63;5035675;28;20179;-64
2022/06/11 01:40:29;;;;;;;18.30;11.40;;;;;;;15.67;99.56;102022.47;5031451;28;20045;-64
2022/06/11 01:43:04;;;;;;;25.05;12.95;;;;;;;15.60;99.40;102024.66;5033815;28;20482;-63
2022/06/11 01:45:36;;;;;;;27.70;14.07;;;;;;;15.59;100.00;102014.00;5050976;28;20045;-64
2022/06/11 01:48:04;;;;;;;25.10;14.35;;;;;;;15.54;100.00;102012.47;5032635;28;20037;-64
2022/06/11 01:50:34;;;;;;;23.77;14.68;;;;;;;15.43;100.00;102009.63;5033856;28;20041;-63
2022/06/11 01:53:28;;;;;;;23.30;15.10;;;;;;;15.49;100.00;102014.59;5051138;28;20131;-64
2022/06/11 01:56:27;;;;;;;25.75;14.95;;;;;;;15.39;100.00;102013.47;5051273;28;20083;-64
2022/06/11 01:59:30;;;;;;;22.27;14.45;;;;;;;15.43;100.00;102006.09;5049489;28;20051;-63
2022/06/11 02:02:12;;;;;;;23.83;14.27;;;;;;;15.47;100.00;102016.56;5050886;28;20053;-64
2022/06/11 02:05:19;;;;;;;21.73;13.55;;;;;;;15.43;100.00;102011.47;5051097;28;20523;-64
2022/06/11 02:08:08;;;;;;;28.63;14.00;;;;;;;15.50;99.98;102012.78;5016865;28;20048;-64
2022/06/11 02:10:45;;;;;;;21.05;12.07;;;;;;;15.42;99.89;102015.13;5050047;28;20040;-64
2022/06/11 02:13:34;;;;;;;21.27;12.75;;;;;;;15.39;100.00;102004.56;5049801;28;20135;-64
2022/06/11 02:16:08;;;;;;;24.05;12.80;;;;;;;15.25;100.00;102005.44;5027902;28;20055;-64
2022/06/11 02:18:35;;;;;;;20.80;11.57;;;;;;;15.31;100.00;102014.94;5050858;28;20796;-64
2022/06/11 02:21:06;;;;;;;16.40;12.20;;;;;;;15.26;100.00;102012.53;5050764;28;20032;-64
2022/06/11 02:23:51;;;;;;;18.67;11.95;;;;;;;15.23;100.00;102010.06;5050911;28;20072;-64
2022/06/11 02:26:25;;;;;;;18.23;12.32;;;;;;;15.11;100.00;102008.16;5050270;28;20036;-64
2022/06/11 02:28:53;;;;;;;18.80;12.43;;;;;;;15.12;100.00;102009.91;5050539;28;20072;-64
2022/06/11 02:31:24;;;;;;;20.80;12.20;;;;;;;15.08;100.00;102016.44;5049664;28;20036;-63
2022/06/11 02:33:51;;;;;;;24.23;12.75;;;;;;;15.06;100.00;102019.22;5050441;28;20041;-64
2022/06/11 02:36:29;;;;;;;25.73;10.98;;;;;;;15.02;100.00;102013.16;5050521;28;20059;-64
2022/06/11 02:38:58;;;;;;;18.80;11.73;;;;;;;15.05;100.00;102020.16;5051229;28;20280;-64
2022/06/11 02:41:30;;;;;;;21.85;11.75;;;;;;;15.08;100.00;102025.34;5050647;28;20032;-64
2022/06/11 02:43:56;;;;;;;20.30;10.77;;;;;;;14.98;100.00;102024.19;5037453;28;20088;-63
2022/06/11 02:46:41;;;;;;;18.20;12.25;;;;;;;14.84;100.00;102021.50;5050529;28;20304;-64
2022/06/11 02:49:09;;;;;;;19.90;13.27;;;;;;;14.88;100.00;102023.91;5049779;28;20045;-63
2022/06/11 02:51:34;;;;;;;23.08;13.32;;;;;;;14.98;100.00;102027.75;5050464;28;20044;-64
2022/06/11 02:54:00;;;;;;;22.15;13.27;;;;;;;15.06;100.00;102034.44;5050553;28;20164;-64
2022/06/11 02:56:25;;;;;;;19.40;14.43;;;;;;;14.87;100.00;102032.94;5050757;28;20052;-64
2022/06/11 02:58:51;;;;;;;18.98;13.18;;;;;;;14.96;100.00;102028.78;5051593;28;20041;-64
2022/06/11 03:01:19;;;;;;;22.70;14.52;;;;;;;14.86;100.00;102025.84;5050761;28;20067;-64
2022/06/11 03:03:44;;;;;;;31.48;14.30;;;;;;;14.82;100.00;102026.13;5051083;28;20683;-64
2022/06/11 03:06:11;;;;;;;21.73;14.07;;;;;;;14.70;100.00;102027.72;5050130;28;20538;-64
2022/06/11 03:08:37;;;;;;;29.20;15.15;;;;;;;14.78;100.00;102028.13;5032892;28;20041;-64
2022/06/11 03:11:02;;;;;;;26.85;15.75;;;;;;;14.77;100.00;102037.16;5050238;28;20059;-64
2022/06/11 03:13:30;;;;;;;20.83;15.82;;;;;;;14.77;100.00;102039.84;5050701;28;20433;-64
2022/06/11 03:15:56;;;;;;;25.30;18.70;;;;;;;14.74;100.00;102037.31;5052601;28;20048;-61
2022/06/11 03:18:22;;;;;;;29.73;17.95;;;;;;;14.73;100.00;102031.09;5054819;28;20040;-63
2022/06/11 03:20:50;;;;;;;27.95;16.73;;;;;;;14.84;100.00;102032.25;5055728;28;20265;-63
2022/06/11 03:23:17;;;;;;;33.95;19.08;;;;;;;14.77;100.00;102037.16;5054748;28;20072;-64
2022/06/11 03:25:43;;;;;;;24.10;16.23;;;;;;;14.92;100.00;102038.88;5054414;28;20039;-64
2022/06/11 03:28:16;;;;;;;33.55;16.67;;;;;;;15.12;100.00;102044.84;5053615;28;20040;-64
2022/06/11 03:30:41;;;;;;;27.23;15.38;;;;;;;15.28;100.00;102041.06;5054814;28;20047;-64
2022/06/11 03:33:07;;;;;;;25.10;15.32;;;;;;;15.28;100.00;102045.56;5053535;28;20028;-63
2022/06/11 03:35:34;;;;;;;23.52;14.00;;;;;;;15.29;99.93;102045.47;5054105;28;20713;-63
2022/06/11 03:38:00;;;;;;;23.83;13.65;;;;;;;15.33;99.35;102047.97;5054027;28;20036;-64
2022/06/11 03:40:25;;;;;;;16.40;11.90;;;;;;;15.44;98.62;102046.31;5054291;28;20156;-64
2022/06/11 03:42:51;;;;;;;17.35;11.48;;;;;;;15.37;98.81;102049.50;5054375;28;20037;-65
2022/06/11 03:45:17;;;;;;;16.50;11.18;;;;;;;15.49;98.06;102048.69;5054094;28;20040;-63
2022/06/11 03:47:43;;;;;;;20.02;11.57;;;;;;;15.54;97.91;102055.50;5054447;28;20833;-64
2022/06/11 03:50:15;;;;;;;14.27;9.70;;;;;;;15.69;97.10;102058.19;5052975;28;20046;-64
2022/06/11 03:52:40;;;;;;;17.38;9.27;;;;;;;15.75;96.26;102058.66;5053342;28;20044;-64
2022/06/11 03:55:07;;;;;;;17.48;9.63;;;;;;;15.65;96.72;102056.66;5053305;28;20041;-64
2022/06/11 03:57:34;;;;;;;17.98;9.63;;;;;;;15.60;96.58;102056.06;5053756;28;21052;-64
2022/06/11 04:00:02;;;;;;;14.70;8.85;;;;;;;15.65;96.05;102065.59;5053504;28;20029;-64
2022/06/11 04:02:33;;;;;;;12.10;8.40;;;;;;;15.64;96.16;102071.94;5053768;28;20044;-63
2022/06/11 04:04:59;;;;;;;15.77;8.90;;;;;;;15.68;95.36;102062.72;5053088;28;20870;-64
2022/06/11 04:07:24;;;;;;;11.90;8.90;;;;;;;15.65;96.14;102065.59;5053782;28;20134;-63
2022/06/11 04:09:50;;;;;;;13.15;7.90;;;;;;;15.71;95.05;102075.97;5053587;28;20044;-64
2022/06/11 04:12:15;;;;;;;19.48;8.05;;;;;;;15.73;94.23;102076.72;5053007;28;20853;-63
2022/06/11 04:14:44;;;;;;;13.70;6.20;;;;;;;15.86;93.76;102087.53;5053395;28;20873;-64
2022/06/11 04:17:31;;;;;;;12.60;7.20;;;;;;;15.82;93.04;102074.41;5034318;28;20036;-63
2022/06/11 04:19:57;;;;;;;12.10;6.30;;;;;;;15.89;91.61;102081.94;5052752;28;20052;-63
2022/06/11 04:22:23;;;;;;;11.73;5.57;;;;;;;15.95;91.59;102088.75;5033472;28;20091;-64
2022/06/11 04:24:49;;;;;;;10.38;5.57;;;;;;;15.95;90.89;102092.31;5035430;28;20036;-64
2022/06/11 04:27:17;;;;;;;12.27;4.88;;;;;;;15.97;91.32;102094.91;5051633;28;20035;-63
2022/06/11 04:29:54;;;;;;;9.43;4.72;;;;;;;15.93;90.76;102090.69;5052820;28;20033;-65
2022/06/11 04:32:21;;;;;;;13.48;5.43;;;;;;;15.98;90.20;102096.63;5052211;28;20058;-63
2022/06/11 04:34:48;;;;;;;6.82;4.38;;;;;;;16.00;89.66;102103.63;5053512;28;20041;-63
2022/06/11 04:37:17;;;;;;;9.10;4.50;;;;;;;16.12;89.06;102103.81;5052025;28;20382;-63
2022/06/11 04:39:45;;;;;;;14.75;4.82;;;;;;;16.12;86.73;102107.34;5053287;28;20047;-62
2022/06/11 04:42:12;;;;;;;14.93;4.70;;;;;;;16.24;86.31;102102.97;5053114;28;20047;-63
2022/06/11 04:44:39;;;;;;;10.90;4.70;;;;;;;16.19;85.83;102102.41;5035453;28;20513;-63
2022/06/11 04:47:06;;;;;;;10.13;4.57;;;;;;;16.29;86.41;102103.53;5052182;28;20041;-63
2022/06/11 04:49:32;;;;;;;10.10;4.45;;;;;;;16.20;86.63;102101.44;5053111;28;20036;-63
2022/06/11 04:51:57;;;;;;;10.75;4.55;;;;;;;16.71;85.06;102096.16;5052690;28;20121;-63
2022/06/11 04:54:23;;;;;;;9.73;4.13;;;;;;;18.67;76.59;102098.88;5051602;28;20446;-64
2022/06/11 04:56:48;;;;;;;7.57;3.28;;;;;;;20.18;70.31;102096.63;5053072;28;20025;-64
2022/06/11 04:59:14;;;;;;;7.00;3.47;;;;;;;20.91;66.71;102092.22;5051402;28;20045;-64
2022/06/11 05:01:41;;;;;;;7.22;3.38;;;;;;;20.85;65.16;102100.91;5038591;28;20032;-64
2022/06/11 05:04:07;;;;;;;11.93;4.35;;;;;;;21.51;62.80;102097.81;5052642;28;20036;-64
2022/06/11 05:06:39;;;;;;;10.75;4.20;;;;;;;21.82;61.67;102098.59;5052350;28;20097;-63
2022/06/11 05:09:05;;;;;;;8.18;3.22;;;;;;;21.63;61.74;102107.56;5052283;28;20135;-64
2022/06/11 05:11:30;;;;;;;6.88;3.45;;;;;;;21.66;60.73;102112.72;5034261;28;20040;-64
2022/06/11 05:13:56;;;;;;;7.68;3.13;;;;;;;22.28;58.73;102103.41;5053866;28;20082;-64
2022/06/11 05:16:21;;;;;;;80.38;5.32;;;;;;;22.57;59.05;102097.97;5051913;28;20073;-64
2022/06/11 05:18:47;;;;;;;13.80;2.88;;;;;;;21.86;59.64;102111.78;5052712;28;20493;-64
2022/06/11 05:21:13;;;;;;;11.00;4.00;;;;;;;21.96;59.73;102104.50;5051581;28;20028;-64
2022/06/11 05:23:39;;;;;;;7.35;3.13;;;;;;;21.81;60.08;102108.63;5052426;28;20533;-64
2022/06/11 05:26:06;;;;;;;11.30;3.10;;;;;;;21.57;60.34;102108.97;5051926;28;20037;-65
2022/06/11 05:28:32;;;;;;;9.48;3.10;;;;;;;21.86;59.17;102111.78;5045556;28;20060;-64
2022/06/11 05:30:58;;;;;;;11.48;3.42;;;;;;;;;;5047467;28;20624;-64
2022/06/11 05:33:24;;;;;;;9.32;3.00;;;;;;;21.94;59.30;102120.09;5048703;28;20040;-64
2022/06/11 05:35:51;;;;;;;13.02;3.03;;;;;;;22.72;58.28;102115.53;5046773;28;20130;-65
2022/06/11 05:38:19;;;;;;;11.10;3.05;;;;;;;22.62;57.03;102111.97;5031577;28;20051;-65
2022/06/11 05:40:48;;;;;;;10.95;3.08;;;;;;;21.60;59.05;102122.28;5046085;28;20047;-64
2022/06/11 05:43:14;;;;;;;13.50;3.92;;;;;;;21.39;60.02;102116.06;5050687;28;20746;-64
2022/06/11 05:45:54;;;;;;;12.82;3.15;;;;;;;20.74;61.61;102119.97;5048529;28;20105;-64
2022/06/11 05:48:24;;;;;;;15.57;4.00;;;;;;;20.79;62.33;102117.72;5045306;28;20039;-64
2022/06/11 05:50:52;;;;;;;15.27;3.88;;;;;;;21.62;60.41;102114.00;5029715;28;20769;-64
2022/06/11 05:53:20;;;;;;;12.70;3.70;;;;;;;22.05;59.68;102121.81;5044758;28;20040;-64
2022/06/11 05:55:48;;;;;;;8.68;2.97;;;;;;;22.28;58.37;102119.72;5020191;28;20162;-64
2022/06/11 05:58:24;;;;;;;13.77;3.13;;;;;;;22.03;58.79;102128.38;5048790;28;20863;-64
2022/06/11 06:00:53;;;;;;;16.15;3.78;;;;;;;22.42;57.43;102126.59;5039585;28;20506;-64
2022/06/11 06:03:19;;;;;;;11.85;3.15;;;;;;;22.60;56.97;102130.31;5035731;28;20048;-63
2022/06/11 06:05:44;;;;;;;12.65;3.28;;;;;;;21.76;57.86;102124.47;5052929;28;20050;-64
2022/06/11 06:08:10;;;;;;;17.00;4.18;;;;;;;21.87;59.94;102137.06;5051335;28;20479;-64
2022/06/11 06:10:36;;;;;;;11.40;3.28;;;;;;;21.81;58.67;102134.91;5047868;28;20230;-63
2022/06/11 06:13:45;;;;;;;17.38;4.25;;;;;;;22.47;56.32;102130.59;5043209;28;20421;-64
2022/06/11 06:15:49;;;;;;;19.40;3.83;;;;;;;22.20;57.75;102128.59;5033049;28;20050;-64
2022/06/11 06:18:15;;;;;;;18.38;4.00;;;;;;;22.47;58.14;102129.75;5048797;28;20584;-65
2022/06/11 06:20:40;;;;;;;16.85;4.40;;;;;;;22.40;57.14;102125.88;5053659;28;20033;-64
2022/06/11 06:23:06;;;;;;;15.13;3.88;;;;;;;22.26;57.68;102138.03;5040590;28;20048;-64
2022/06/11 06:25:31;;;;;;;17.77;4.22;;;;;;;22.60;58.05;102137.63;5056657;28;20040;-62
2022/06/11 06:27:56;;;;;;;13.75;3.33;;;;;;;22.35;57.35;102139.06;5055092;28;20054;-64
2022/06/11 06:30:22;;;;;;;14.25;3.95;;;;;;;22.22;57.88;102137.44;5046076;28;20044;-64
2022/06/11 06:32:47;;;;;;;12.70;3.53;;;;;;;22.09;58.39;102131.41;5049389;28;20037;-64
2022/06/11 06:35:13;;;;;;;17.30;3.90;;;;;;;22.54;58.20;102133.63;5049350;28;20048;-64
2022/06/11 06:37:38;;;;;;;16.65;3.83;;;;;;;22.00;58.59;102137.69;5046572;28;20052;-63
2022/06/11 06:40:05;;;;;;;16.77;3.70;;;;;;;22.05;58.64;102137.28;5046803;28;20044;-64
2022/06/11 06:42:30;;;;;;;18.60;4.15;;;;;;;22.56;58.23;102144.34;5051358;28;20845;-64
2022/06/11 06:44:57;;;;;;;13.48;4.00;;;;;;;22.42;57.61;102149.19;5049862;28;20363;-63
2022/06/11 06:47:22;;;;;;;16.00;3.72;;;;;;;23.28;55.96;102149.25;5049682;28;20045;-64
2022/06/11 06:49:48;;;;;;;19.45;4.40;;;;;;;22.72;56.27;102144.59;5054661;28;20044;-64
2022/06/11 06:52:13;;;;;;;14.50;4.00;;;;;;;22.92;55.02;102145.47;5056160;28;20033;-64
2022/06/11 06:54:39;;;;;;;15.65;3.92;;;;;;;22.74;56.86;102140.75;5053386;28;20425;-64
2022/06/11 06:57:04;;;;;;;22.27;4.43;;;;;;;23.48;54.92;102148.16;5054478;28;20036;-64
2022/06/11 06:59:29;;;;;;;15.07;4.00;;;;;;;23.48;54.96;102142.72;5049241;28;20040;-64
2022/06/11 07:01:55;;;;;;;19.02;4.40;;;;;;;23.62;55.34;102152.25;5043178;28;20059;-64
2022/06/11 07:04:20;;;;;;;17.55;4.63;;;;;;;23.14;55.30;102156.00;5037646;28;20049;-64
2022/06/11 07:06:46;;;;;;;21.48;4.40;;;;;;;23.44;55.77;102152.19;5045014;28;20040;-64
2022/06/11 07:09:11;;;;;;;13.82;3.97;;;;;;;24.12;53.88;102149.13;5044338;28;20033;-64
2022/06/11 07:11:37;;;;;;;13.40;3.92;;;;;;;22.78;57.48;102156.78;5044582;28;20361;-64
2022/06/11 07:14:03;;;;;;;10.35;3.65;;;;;;;23.96;54.52;102149.81;5032765;28;20607;-64
2022/06/11 07:16:34;;;;;;;16.63;4.13;;;;;;;23.96;53.83;102144.38;5034132;28;20032;-63
2022/06/11 07:19:03;;;;;;;14.65;3.70;;;;;;;23.66;54.39;102147.41;5048318;28;20763;-64
2022/06/11 07:21:34;;;;;;;23.90;5.18;;;;;;;24.21;52.38;102141.91;5034487;28;20065;-63
2022/06/11 07:24:05;;;;;;;14.55;3.72;;;;;;;23.75;52.41;102150.09;5034604;28;20037;-64
2022/06/11 07:26:43;;;;;;;14.85;3.83;;;;;;;23.54;53.82;102138.53;5043377;28;20044;-64
2022/06/11 07:29:19;;;;;;;13.95;3.47;;;;;;;23.58;53.11;102144.53;5040910;28;20752;-65
2022/06/11 07:31:47;;;;;;;18.58;4.20;;;;;;;23.71;54.19;102151.41;5051580;28;20122;-64
2022/06/11 07:34:13;;;;;;;10.73;3.72;;;;;;;23.68;53.66;102145.38;5047994;28;20029;-64
2022/06/11 07:36:39;;;;;;;14.85;3.55;;;;;;;23.92;51.33;102145.69;5033937;28;20041;-64
2022/06/11 07:39:04;;;;;;;16.60;4.88;;;;;;;22.92;54.46;102146.34;5032420;28;20491;-64
2022/06/11 07:41:30;;;;;;;20.85;4.35;;;;;;;23.43;54.48;102146.91;5033211;28;20147;-64
2022/06/11 07:43:55;;;;;;;21.38;4.53;;;;;;;23.98;55.15;102145.06;5032859;28;20037;-63
2022/06/11 07:46:21;;;;;;;14.65;3.50;;;;;;;24.35;52.37;102155.00;5032306;28;20041;-64
2022/06/11 07:48:48;;;;;;;19.13;4.22;;;;;;;23.61;54.99;102138.81;5033014;28;20033;-64
2022/06/11 07:51:18;;;;;;;16.33;3.72;;;;;;;23.81;57.43;102136.88;5032641;28;20033;-65
2022/06/11 07:53:48;;;;;;;14.18;3.35;;;;;;;23.84;54.27;102137.41;5034581;28;20123;-64
2022/06/11 07:56:14;;;;;;;16.63;4.32;;;;;;;24.02;52.93;102145.63;5032365;28;20136;-63
2022/06/11 07:58:40;;;;;;;20.55;4.35;;;;;;;24.23;50.08;102151.63;5032759;28;20115;-64
2022/06/11 08:01:05;;;;;;;15.50;3.30;;;;;;;24.67;50.16;102150.91;5031568;28;20055;-63
2022/06/11 08:03:32;;;;;;;16.58;4.35;;;;;;;24.80;51.87;102148.63;5032929;28;20186;-64
2022/06/11 08:05:58;;;;;;;23.75;4.22;;;;;;;24.84;52.31;102160.91;5032000;28;20050;-63
2022/06/11 08:08:24;;;;;;;20.40;3.80;;;;;;;24.95;49.81;102163.41;5031845;28;20987;-64
2022/06/11 08:10:50;;;;;;;12.15;3.85;;;;;;;24.82;50.75;102157.50;5034323;28;20033;-63
2022/06/11 08:13:16;;;;;;;20.00;4.03;;;;;;;24.13;52.34;102152.72;5034568;28;20044;-64
2022/06/11 08:15:43;;;;;;;16.58;3.92;;;;;;;24.69;52.01;102154.31;5034756;28;20515;-63
2022/06/11 08:18:09;;;;;;;21.30;3.72;;;;;;;24.77;54.88;102163.44;5044268;28;20044;-65
2022/06/11 08:20:36;;;;;;;17.20;4.00;;;;;;;24.33;52.10;102165.19;5052898;28;20044;-64
2022/06/11 08:23:02;;;;;;;15.68;4.40;;;;;;;24.31;51.53;102160.94;5052374;28;20040;-63
2022/06/11 08:25:28;;;;;;;19.25;3.97;;;;;;;23.97;52.84;102156.97;5052250;28;20036;-63
2022/06/11 08:27:54;;;;;;;19.75;4.47;;;;;;;24.01;54.06;102154.81;5044302;28;20036;-63
2022/06/11 08:30:23;;;;;;;12.55;3.80;;;;;;;25.00;50.54;102152.88;5032213;28;20090;-64
2022/06/11 08:32:48;;;;;;;14.52;3.40;;;;;;;24.60;49.05;102163.44;5046672;28;20059;-63
2022/06/11 08:35:16;;;;;;;16.70;4.82;;;;;;;24.64;50.40;102159.38;5032932;28;20064;-63
2022/06/11 08:37:41;;;;;;;16.35;3.97;;;;;;;25.26;50.08;102154.78;5033239;28;20110;-63
2022/06/11 08:40:16;;;;;;;17.40;4.03;;;;;;;24.48;50.98;102169.13;5032657;28;20880;-63
2022/06/11 08:42:43;;;;;;;11.25;4.13;;;;;;;24.82;50.59;102162.97;5032338;28;20063;-64
2022/06/11 08:45:25;;;;;;;14.50;4.32;;;;;;;25.47;49.32;102162.56;5036721;28;20052;-62
2022/06/11 08:47:59;;;;;;;13.98;3.50;;;;;;;24.73;46.78;102164.75;5031924;28;20037;-63
2022/06/11 08:50:32;;;;;;;20.35;3.85;;;;;;;24.08;49.97;102172.25;5016839;28;20118;-63
2022/06/11 08:52:58;;;;;;;17.83;3.65;;;;;;;24.35;48.77;102173.22;5040424;28;20032;-63
2022/06/11 08:55:32;;;;;;;10.98;3.40;;;;;;;24.37;50.75;102180.28;5039416;28;20139;-63
2022/06/11 08:58:09;;;;;;;17.88;4.05;;;;;;;24.45;51.25;102174.91;5042179;28;20041;-64
2022/06/11 09:00:41;;;;;;;16.88;3.75;;;;;;;24.72;49.69;102167.66;5034924;28;20052;-63
2022/06/11 09:03:16;;;;;;;14.85;3.97;;;;;;;24.64;51.15;102170.28;5031853;28;20044;-64
2022/06/11 09:06:08;;;;;;;16.85;4.30;;;;;;;24.40;50.88;102174.53;5049885;28;20815;-62
2022/06/11 09:08:40;;;;;;;;;;;;;;;24.86;50.02;102172.53;5040421;28;20119;-64
2022/06/11 09:11:28;;;;;;;14.57;3.80;;;;;;;24.45;49.25;102177.66;5040450;28;20029;-64
2022/06/11 09:14:35;;;;;;;15.88;3.63;;;;;;;25.00;49.48;102173.81;5038935;28;20493;-63
2022/06/11 09:17:03;;;;;;;15.10;3.97;;;;;;;23.76;49.27;102170.00;5019840;28;20071;-63
2022/06/11 09:20:07;;;;;;;18.95;3.80;;;;;;;23.77;52.66;102171.72;5058173;28;20051;-64
2022/06/11 09:22:45;;;;;;;10.90;2.97;;;;;;;24.07;52.59;102170.56;5043065;28;20147;-63
2022/06/11 09:25:35;;;;;;;12.13;3.10;;;;;;;24.47;50.01;102180.22;5056850;28;20850;-63
2022/06/11 09:28:20;;;;;;;16.17;3.67;;;;;;;25.10;48.97;102180.06;5048205;28;20040;-63
2022/06/11 09:31:01;;;;;;;10.65;3.30;;;;;;;24.11;46.70;102191.06;5049491;28;20033;-63
2022/06/11 09:33:37;;;;;;;17.83;3.53;;;;;;;23.21;47.63;102187.09;5054712;28;20496;-63
2022/06/11 09:36:09;;;;;;;11.82;3.10;;;;;;;24.74;47.34;102181.97;5056991;28;20040;-63
2022/06/11 09:38:57;;;;;;;11.13;3.20;;;;;;;24.89;47.45;102185.00;5051208;28;20887;-63
2022/06/11 09:41:35;;;;;;;14.45;3.15;;;;;;;25.25;44.86;102185.81;5048557;28;20468;-61
2022/06/11 09:44:30;;;;;;;13.93;3.22;;;;;;;25.36;43.67;102191.03;5036283;28;20032;-62
2022/06/11 09:47:02;;;;;;;14.15;3.28;;;;;;;25.41;48.33;102185.94;5034057;28;20041;-64
2022/06/11 09:49:49;;;;;;;11.05;3.00;;;;;;;25.82;45.51;102186.16;5055942;28;20036;-63
2022/06/11 09:52:20;;;;;;;13.55;3.40;;;;;;;25.31;46.50;102187.91;5047976;28;20040;-62
2022/06/11 09:54:52;;;;;;;14.23;3.58;;;;;;;24.58;48.39;102190.88;5025494;28;20050;-63
2022/06/11 09:57:27;;;;;;;11.43;3.40;;;;;;;24.36;48.76;102185.91;5033659;28;20047;-63
2022/06/11 10:00:13;;;;;;;13.88;3.78;;;;;;;24.51;50.04;102192.53;5056436;28;20044;-63
2022/06/11 10:03:04;;;;;;;19.13;3.33;;;;;;;25.21;48.42;102179.84;5035545;28;20130;-62
2022/06/11 10:05:42;;;;;;;15.20;3.73;;;;;;;25.40;51.25;102194.25;5043929;28;20128;-63
2022/06/11 10:08:29;;;;;;;13.82;3.28;;;;;;;24.25;47.96;102198.72;5037168;28;20045;-61
2022/06/11 10:10:56;;;;;;;16.88;3.90;;;;;;;24.48;47.01;102193.69;5045705;28;20387;-62
2022/06/11 10:13:43;;;;;;;19.50;4.07;;;;;;;25.65;55.00;102181.59;5040353;28;20510;-63
2022/06/11 10:16:29;;;;;;;14.10;3.60;;;;;;;25.10;48.15;102190.13;5045664;28;20145;-62
2022/06/11 10:19:13;;;;;;;14.30;3.70;;;;;;;24.27;46.63;102188.50;5055694;28;20047;-63
2022/06/11 10:21:45;;;;;;;15.68;4.10;;;;;;;24.65;48.35;102191.09;5058724;28;20036;-62
2022/06/11 10:24:17;;;;;;;15.88;4.15;;;;;;;24.78;47.31;102191.56;5049342;28;20052;-62
2022/06/11 10:26:51;;;;;;;;;;;;;;;24.49;46.54;102187.22;5043095;28;20549;-62
2022/06/11 10:29:36;;;;;;;13.23;3.72;;;;;;;24.58;53.18;102196.34;5061143;28;19927;-63
2022/06/11 10:32:13;;;;;;;13.23;4.20;;;;;;;24.79;47.40;102188.69;5062596;28;20797;-63
2022/06/11 10:34:44;;;;;;;17.02;3.72;;;;;;;24.39;47.06;102193.75;5053419;28;20145;-62
2022/06/11 10:37:26;;;;;;;13.02;3.28;;;;;;;24.96;45.82;102192.41;5046955;28;20036;-64
2022/06/11 10:40:06;;;;;;;14.20;3.38;;;;;;;25.03;48.61;102193.47;5039404;28;20043;-62
2022/06/11 10:42:40;;;;;;;10.00;2.85;;;;;;;24.69;44.37;102195.22;5045859;28;20036;-62
2022/06/11 10:45:14;;;;;;;14.30;2.95;;;;;;;24.73;45.93;102199.38;5037872;28;20041;-63
2022/06/11 10:47:48;;;;;;;10.45;2.72;;;;;;;24.20;45.25;102198.31;5048399;28;20036;-63
2022/06/11 10:50:17;;;;;;;10.38;2.97;;;;;;;24.78;44.30;102197.88;5036670;28;20037;-61
2022/06/11 10:53:12;;;;;;;12.00;3.00;;;;;;;24.81;46.01;102196.72;5061178;28;20044;-63
2022/06/11 10:55:59;;;;;;;10.00;3.17;;;;;;;24.39;46.04;102205.50;5061555;28;20040;-62
2022/06/11 10:58:38;;;;;;;10.02;2.95;;;;;;;24.18;44.82;102194.00;5051204;28;20036;-62
2022/06/11 11:01:24;;;;;;;14.82;3.42;;;;;;;24.79;44.69;102202.31;5046436;28;20048;-63
2022/06/11 11:03:58;;;;;;;13.85;2.85;;;;;;;25.30;44.54;102184.34;5041695;28;20035;-62
2022/06/11 11:06:28;;;;;;;12.73;3.05;;;;;;;24.89;44.61;102183.13;5063779;28;20044;-63
2022/06/11 11:08:58;;;;;;;10.93;2.75;;;;;;;24.58;44.23;102192.75;5047779;28;20471;-62
2022/06/11 11:11:29;;;;;;;11.52;2.83;;;;;;;24.45;43.59;102190.41;5054322;28;20875;-63
2022/06/11 11:14:33;;;;;;;14.20;3.15;;;;;;;24.73;43.17;102185.72;5053211;28;20063;-63
2022/06/11 11:17:05;;;;;;;9.82;2.50;;;;;;;24.69;45.65;102190.63;5058546;28;20056;-62
2022/06/11 11:19:41;;;;;;;12.05;2.88;;;;;;;24.71;45.53;102188.63;5060422;28;20137;-62
2022/06/11 11:22:06;;;;;;;11.73;3.17;;;;;;;25.08;47.58;102179.38;5056817;28;20044;-62
2022/06/11 11:24:42;;;;;;;9.73;2.83;;;;;;;24.28;44.64;102181.16;5051316;28;20024;-63
2022/06/11 11:27:17;;;;;;;11.52;2.47;;;;;;;24.46;46.35;102186.69;5049176;28;20628;-61
2022/06/11 11:29:56;;;;;;;17.05;3.20;;;;;;;24.47;46.09;102191.13;5050177;28;20049;-62
2022/06/11 11:32:33;;;;;;;12.15;3.17;;;;;;;24.76;45.37;102186.28;5050267;28;20485;-63
2022/06/11 11:35:14;;;;;;;15.95;2.83;;;;;;;24.70;44.53;102188.75;5051943;28;20128;-63